Terminal Aerodrome Forecast
Issued by NWS

Home | Current Version | Previous Version | Text Only | Print | Product List | Glossary On
Versions: 1 2 3 4 5 6 7 8 9 10 11 12 13 14 15 16 17 18 19 20 21 22 23 24 25 26
818
FTUS43 KDMX 231135 AAA
TAFOTM
TAF AMD
KOTM 231135Z 2312/2406 17007KT P6SM BKN200
     FM231600 18012KT P6SM BKN200
     FM240300 19007KT P6SM SCT200=

USA.gov is the U.S. government's official web portal to all federal, state and local government web resources and services.